URY weather

Gurayat Domestic Airport
Gurayat, The Northern Border Region, Saudi Arabia

Public forecast

Using degrees Celsius for public forecast. Weather courtesy of forecast.io.

METAR (pilot weather report)

Retrieved 2019/09/23 17:00 UTC (15 minutes ago):

OEGT 231700Z 29008KT CAVOK 30/06 Q1012 NOSIG

TAF (pilot weather forecast)

Retrieved 2019/09/23 12:06 UTC (5 hours ago):

TAF OEGT 231100Z 2312/2418 31015KT CAVOK BECMG 2320/2322 30005KT